createdAt,value
2023-05-16T00:00:19.990Z,82.40
2023-05-16T00:02:53.905Z,82.48
2023-05-16T00:05:22.368Z,82.58
2023-05-16T00:07:52.160Z,82.64
2023-05-16T00:10:20.605Z,82.82
2023-05-16T00:12:51.526Z,82.92
2023-05-16T00:15:20.404Z,83.06
2023-05-16T00:17:50.838Z,82.98
2023-05-16T00:20:23.734Z,82.99
2023-05-16T00:22:52.195Z,82.78
2023-05-16T00:25:20.892Z,82.92
2023-05-16T00:27:50.421Z,82.91
2023-05-16T00:30:18.916Z,82.98
2023-05-16T00:32:47.274Z,83.24
2023-05-16T00:35:15.651Z,83.29
2023-05-16T00:37:46.696Z,83.60
2023-05-16T00:40:15.457Z,83.92
2023-05-16T00:42:43.910Z,83.68
2023-05-16T00:45:12.795Z,84.12
2023-05-16T00:47:50.999Z,84.26
2023-05-16T00:50:20.159Z,84.30
2023-05-16T00:52:51.091Z,84.46
2023-05-16T00:55:19.593Z,84.41
2023-05-16T00:57:47.991Z,84.29
2023-05-16T01:00:16.927Z,83.75
2023-05-16T01:02:45.638Z,83.82
2023-05-16T01:05:14.216Z,83.74
2023-05-16T01:07:42.576Z,83.79
2023-05-16T01:10:13.061Z,83.89
2023-05-16T01:13:07.548Z,84.11
2023-05-16T01:15:45.395Z,84.25
2023-05-16T01:18:24.922Z,84.62
2023-05-16T01:21:00.519Z,84.30
2023-05-16T01:23:43.220Z,84.35
2023-05-16T01:26:19.633Z,84.17
2023-05-16T01:28:49.285Z,84.12
2023-05-16T01:31:17.927Z,84.06
2023-05-16T01:33:46.329Z,83.95
2023-05-16T01:36:25.858Z,83.78
2023-05-16T01:39:08.536Z,83.74
2023-05-16T01:41:48.738Z,83.95
2023-05-16T01:44:24.720Z,83.91
2023-05-16T01:46:57.808Z,83.86
2023-05-16T01:49:32.363Z,84.02
2023-05-16T01:52:03.386Z,84.15
2023-05-16T01:54:33.398Z,84.09
2023-05-16T01:57:06.090Z,84.43
2023-05-16T01:59:35.134Z,84.22
2023-05-16T02:02:03.701Z,84.23
2023-05-16T02:04:32.058Z,84.29
2023-05-16T02:07:01.985Z,84.26
2023-05-16T02:09:39.125Z,84.61
2023-05-16T02:12:09.349Z,84.52
2023-05-16T02:14:38.201Z,84.55
2023-05-16T02:17:09.091Z,84.79
2023-05-16T02:19:37.498Z,84.80
2023-05-16T02:22:06.232Z,84.98
2023-05-16T02:24:34.948Z,84.97
2023-05-16T02:27:03.843Z,85.01
2023-05-16T02:29:33.613Z,85.12
2023-05-16T02:32:01.992Z,84.97
2023-05-16T02:34:30.442Z,84.89
2023-05-16T02:36:58.770Z,84.82
2023-05-16T02:39:27.247Z,85.20
2023-05-16T02:41:55.681Z,85.10
2023-05-16T02:44:24.057Z,85.14
2023-05-16T02:46:53.926Z,85.23
2023-05-16T02:49:22.368Z,85.16
2023-05-16T02:51:50.701Z,85.24
2023-05-16T02:54:19.872Z,85.34
2023-05-16T02:56:48.249Z,85.20
2023-05-16T02:59:16.646Z,85.21
2023-05-16T03:01:45.092Z,85.26
2023-05-16T03:04:14.912Z,85.46
2023-05-16T03:06:43.274Z,85.51
2023-05-16T03:09:11.685Z,85.34
2023-05-16T03:11:40.088Z,85.15
2023-05-16T03:14:08.432Z,85.34
2023-05-16T03:16:38.870Z,85.46
2023-05-16T03:19:07.550Z,85.51
2023-05-16T03:21:37.317Z,85.69
2023-05-16T03:24:06.488Z,85.55
2023-05-16T03:26:34.819Z,85.64
2023-05-16T03:29:03.177Z,85.78
2023-05-16T03:31:33.111Z,85.69
2023-05-16T03:34:01.480Z,85.73
2023-05-16T03:36:30.188Z,85.76
2023-05-16T03:38:59.971Z,85.76
2023-05-16T03:41:28.754Z,85.76
2023-05-16T03:43:57.052Z,85.82
2023-05-16T03:46:25.534Z,85.73
2023-05-16T03:48:55.162Z,85.75
2023-05-16T03:51:24.651Z,86.03
2023-05-16T03:53:56.036Z,85.97
2023-05-16T03:56:26.007Z,85.94
2023-05-16T03:58:55.419Z,85.92
2023-05-16T04:01:23.816Z,85.90
2023-05-16T04:03:53.365Z,85.92
2023-05-16T04:06:22.079Z,85.98
2023-05-16T04:08:50.439Z,86.08
2023-05-16T04:11:18.838Z,86.14
2023-05-16T04:13:48.649Z,86.18
2023-05-16T04:16:17.200Z,86.22
2023-05-16T04:18:45.656Z,86.12
2023-05-16T04:21:15.422Z,86.08
2023-05-16T04:23:43.815Z,86.01
2023-05-16T04:26:12.861Z,86.01
2023-05-16T04:28:41.466Z,86.11
2023-05-16T04:31:11.457Z,86.05
2023-05-16T04:33:39.847Z,85.92
2023-05-16T04:36:08.489Z,85.89
2023-05-16T04:38:36.889Z,85.96
2023-05-16T04:41:05.327Z,85.91
2023-05-16T04:43:35.182Z,85.98
2023-05-16T04:46:04.076Z,85.72
2023-05-16T04:48:33.882Z,86.05
2023-05-16T04:51:02.225Z,85.78
2023-05-16T04:53:30.618Z,85.75
2023-05-16T04:55:58.985Z,85.99
2023-05-16T04:58:27.376Z,86.02
2023-05-16T05:00:56.855Z,86.00
2023-05-16T05:03:25.264Z,85.91
2023-05-16T05:05:55.519Z,86.01
2023-05-16T05:08:23.908Z,86.01
2023-05-16T05:10:52.259Z,85.85
2023-05-16T05:13:20.956Z,85.79
2023-05-16T05:15:50.432Z,85.77
2023-05-16T05:18:19.174Z,85.82
2023-05-16T05:20:47.850Z,85.91
2023-05-16T05:23:18.106Z,85.90
2023-05-16T05:25:46.428Z,85.86
2023-05-16T05:28:18.296Z,85.86
2023-05-16T05:30:46.790Z,85.72
2023-05-16T05:33:18.057Z,85.80
2023-05-16T05:35:46.520Z,85.61
2023-05-16T05:38:14.867Z,85.75
2023-05-16T05:40:44.563Z,85.90
2023-05-16T05:43:13.129Z,85.96
2023-05-16T05:45:41.721Z,85.29
2023-05-16T05:48:10.922Z,85.19
2023-05-16T05:50:39.574Z,85.10
2023-05-16T05:53:07.938Z,84.93
2023-05-16T05:55:36.285Z,85.27
2023-05-16T05:58:07.328Z,84.69
2023-05-16T06:00:36.107Z,84.91
2023-05-16T06:03:04.897Z,84.85
2023-05-16T06:05:33.463Z,84.82
2023-05-16T06:08:01.800Z,84.94
2023-05-16T06:10:30.174Z,85.16
2023-05-16T06:12:58.639Z,85.26
2023-05-16T06:15:28.644Z,84.90
2023-05-16T06:17:58.119Z,84.68
2023-05-16T06:20:26.722Z,84.81
2023-05-16T06:22:57.252Z,84.80
2023-05-16T06:25:25.802Z,85.02
2023-05-16T06:27:55.528Z,84.94
2023-05-16T06:30:23.900Z,84.68
2023-05-16T06:32:54.518Z,84.80
2023-05-16T06:35:23.280Z,84.54
2023-05-16T06:38:01.588Z,84.49
2023-05-16T06:40:30.053Z,84.12
2023-05-16T06:42:58.704Z,84.30
2023-05-16T06:45:27.312Z,84.14
2023-05-16T06:48:00.178Z,84.29
2023-05-16T06:50:28.565Z,84.10
2023-05-16T06:52:57.450Z,83.69
2023-05-16T06:55:26.076Z,83.73
2023-05-16T06:57:55.917Z,83.80
2023-05-16T07:00:24.613Z,83.60
2023-05-16T07:03:00.302Z,83.27
2023-05-16T07:05:28.947Z,83.18
2023-05-16T07:07:57.699Z,82.97
2023-05-16T07:10:27.328Z,82.53
2023-05-16T07:12:58.329Z,82.63
2023-05-16T07:15:27.114Z,82.30
2023-05-16T07:17:57.356Z,82.19
2023-05-16T07:20:27.354Z,82.17
2023-05-16T07:22:58.519Z,82.19
2023-05-16T07:25:27.238Z,81.92
2023-05-16T07:27:57.439Z,81.75
2023-05-16T07:30:25.920Z,81.66
2023-05-16T07:32:55.099Z,81.73
2023-05-16T07:35:23.583Z,81.37
2023-05-16T07:37:53.813Z,81.43
2023-05-16T07:40:28.454Z,81.16
2023-05-16T07:42:58.432Z,80.96
2023-05-16T07:45:27.111Z,81.02
2023-05-16T07:47:56.588Z,80.92
2023-05-16T07:50:25.263Z,80.66
2023-05-16T07:52:55.881Z,80.47
2023-05-16T07:55:24.483Z,80.16
2023-05-16T07:57:53.238Z,80.42
2023-05-16T08:00:22.270Z,80.46
2023-05-16T08:02:52.030Z,80.07
2023-05-16T08:05:20.604Z,80.19
2023-05-16T08:07:49.002Z,80.31
2023-05-16T08:10:18.820Z,80.13
2023-05-16T08:12:48.400Z,80.40
2023-05-16T08:15:17.010Z,80.16
2023-05-16T08:17:45.487Z,80.33
2023-05-16T08:20:19.876Z,80.54
2023-05-16T08:22:48.260Z,80.20
2023-05-16T08:25:18.018Z,80.14
2023-05-16T08:27:47.096Z,80.26
2023-05-16T08:30:15.908Z,80.26
2023-05-16T08:32:44.629Z,79.91
2023-05-16T08:35:13.529Z,79.96
2023-05-16T08:37:44.794Z,79.72
2023-05-16T08:40:15.466Z,79.75
2023-05-16T08:42:45.544Z,79.69
2023-05-16T08:45:14.605Z,79.66
2023-05-16T08:47:45.286Z,79.67
2023-05-16T08:50:14.920Z,79.78
2023-05-16T08:52:45.517Z,79.75
2023-05-16T08:55:16.565Z,79.98
2023-05-16T08:57:46.842Z,79.68
2023-05-16T09:00:21.825Z,79.98
2023-05-16T09:02:57.683Z,79.48
2023-05-16T09:05:27.285Z,79.27
2023-05-16T09:07:56.898Z,79.11
2023-05-16T09:10:25.453Z,79.26
2023-05-16T09:12:55.237Z,79.26
2023-05-16T09:15:23.732Z,79.12
2023-05-16T09:17:52.666Z,79.31
2023-05-16T09:20:21.864Z,79.56
2023-05-16T09:22:59.145Z,79.67
2023-05-16T09:25:31.531Z,79.82
2023-05-16T09:28:03.385Z,79.72
2023-05-16T09:30:34.566Z,79.91
2023-05-16T09:33:03.606Z,79.42
2023-05-16T09:38:04.084Z,79.70
2023-05-16T09:40:32.530Z,79.32
2023-05-16T09:43:06.926Z,79.41
2023-05-16T09:45:36.928Z,79.36
2023-05-16T09:48:06.971Z,79.17
2023-05-16T09:50:36.388Z,79.33
2023-05-16T09:53:05.727Z,78.80
2023-05-16T09:55:34.530Z,78.92
2023-05-16T09:58:03.182Z,79.16
2023-05-16T10:00:35.196Z,78.83
2023-05-16T10:03:13.970Z,78.78
2023-05-16T10:05:42.718Z,78.75
2023-05-16T10:08:12.653Z,78.62
2023-05-16T10:10:41.478Z,78.92
2023-05-16T10:13:10.878Z,78.68
2023-05-16T10:15:41.197Z,78.58
2023-05-16T10:18:13.487Z,78.64
2023-05-16T10:20:44.111Z,78.81
2023-05-16T10:23:18.437Z,78.94
2023-05-16T10:25:48.260Z,78.84
2023-05-16T10:28:17.419Z,78.96
2023-05-16T10:30:48.318Z,79.04
2023-05-16T10:33:18.508Z,79.34
2023-05-16T10:35:48.005Z,79.15
2023-05-16T10:38:18.985Z,79.16
2023-05-16T10:40:48.849Z,79.21
2023-05-16T10:43:25.758Z,79.14
2023-05-16T10:46:00.837Z,79.46
2023-05-16T10:48:33.159Z,79.58
2023-05-16T10:51:03.213Z,79.47
2023-05-16T10:53:33.442Z,78.97
2023-05-16T10:56:10.229Z,79.12
2023-05-16T10:58:46.202Z,79.12
2023-05-16T11:01:24.552Z,79.04
2023-05-16T11:04:12.462Z,79.22
2023-05-16T11:06:51.401Z,79.59
2023-05-16T11:09:26.579Z,79.62
2023-05-16T11:12:06.526Z,80.02
2023-05-16T11:14:42.247Z,80.16
2023-05-16T11:17:16.533Z,80.67
2023-05-16T11:19:46.482Z,80.88
2023-05-16T11:22:24.018Z,81.39
2023-05-16T11:24:56.232Z,81.69
2023-05-16T11:27:27.424Z,81.86
2023-05-16T11:30:01.094Z,82.23
2023-05-16T11:32:35.699Z,82.21
2023-05-16T11:35:05.675Z,82.35
2023-05-16T11:37:37.842Z,82.42
2023-05-16T11:40:08.694Z,82.53
2023-05-16T11:42:39.368Z,83.29
2023-05-16T11:45:10.364Z,83.30
2023-05-16T11:47:41.413Z,83.45
2023-05-16T11:50:14.364Z,83.43
2023-05-16T11:52:45.960Z,83.48
2023-05-16T11:55:21.414Z,83.53
2023-05-16T11:57:53.965Z,83.30
2023-05-16T12:00:24.464Z,83.63
2023-05-16T12:02:55.982Z,83.85
2023-05-16T12:05:28.458Z,84.18
2023-05-16T12:07:58.828Z,84.37
2023-05-16T12:10:27.643Z,84.43
2023-05-16T12:12:57.540Z,84.06
2023-05-16T12:15:26.662Z,83.99
2023-05-16T12:17:57.101Z,84.45
2023-05-16T12:20:26.307Z,85.10
2023-05-16T12:22:54.911Z,85.39
2023-05-16T12:25:25.360Z,85.17
2023-05-16T12:27:55.244Z,85.59
2023-05-16T12:30:25.543Z,85.62
2023-05-16T12:32:58.945Z,86.05
2023-05-16T12:35:32.218Z,85.99
2023-05-16T12:38:01.282Z,86.22
2023-05-16T12:40:31.171Z,86.45
2023-05-16T12:43:01.239Z,86.24
2023-05-16T12:45:30.039Z,86.50
2023-05-16T12:48:06.783Z,86.26
2023-05-16T12:50:39.677Z,86.26
2023-05-16T12:53:13.718Z,85.94
2023-05-16T12:55:42.743Z,85.70
2023-05-16T12:58:12.032Z,85.95
2023-05-16T13:00:40.566Z,85.69
2023-05-16T13:03:10.660Z,85.89
2023-05-16T13:05:39.293Z,85.50
2023-05-16T13:08:08.527Z,85.55
2023-05-16T13:10:37.186Z,85.25
2023-05-16T13:13:06.957Z,85.37
2023-05-16T13:15:35.725Z,85.29
2023-05-16T13:18:04.380Z,85.14
2023-05-16T13:20:34.257Z,85.33
2023-05-16T13:23:02.821Z,85.24
2023-05-16T13:25:31.200Z,85.41
2023-05-16T13:28:00.112Z,85.87
2023-05-16T13:30:29.042Z,86.01
2023-05-16T13:32:59.640Z,86.44
2023-05-16T13:35:28.542Z,86.17
2023-05-16T13:37:58.658Z,86.63
2023-05-16T13:40:27.866Z,86.62
2023-05-16T13:42:56.681Z,86.78
2023-05-16T13:45:25.364Z,87.25
2023-05-16T13:47:53.847Z,87.07
2023-05-16T13:50:22.334Z,87.46
2023-05-16T13:52:50.813Z,87.59
2023-05-16T13:55:20.700Z,87.46
2023-05-16T13:58:00.211Z,87.66
2023-05-16T14:00:43.389Z,87.53
2023-05-16T14:03:14.141Z,87.25
2023-05-16T14:05:42.954Z,87.35
2023-05-16T14:08:11.391Z,87.16
2023-05-16T14:10:41.152Z,86.54
2023-05-16T14:13:09.637Z,86.35
2023-05-16T14:15:38.050Z,85.38
2023-05-16T14:18:07.635Z,84.78
2023-05-16T14:20:36.266Z,84.35
2023-05-16T14:23:04.669Z,84.14
2023-05-16T14:25:33.364Z,83.69
2023-05-16T14:28:04.836Z,83.13
2023-05-16T14:30:33.308Z,82.87
2023-05-16T14:33:03.525Z,82.78
2023-05-16T14:35:32.226Z,82.52
2023-05-16T14:38:03.838Z,82.65
2023-05-16T14:40:32.276Z,82.50
2023-05-16T14:43:04.352Z,82.34
2023-05-16T14:45:34.753Z,82.49
2023-05-16T14:48:03.894Z,82.83
2023-05-16T14:50:35.449Z,83.34
2023-05-16T14:53:04.472Z,83.35
2023-05-16T14:55:32.878Z,83.89
2023-05-16T14:58:02.567Z,84.23
2023-05-16T15:00:32.179Z,84.90
2023-05-16T15:03:04.348Z,85.30
2023-05-16T15:05:33.083Z,85.60
2023-05-16T15:08:03.102Z,85.56
2023-05-16T15:10:31.652Z,85.79
2023-05-16T15:13:01.125Z,85.91
2023-05-16T15:15:29.603Z,85.69
2023-05-16T15:17:58.066Z,86.04
2023-05-16T15:20:28.277Z,86.30
2023-05-16T15:22:57.021Z,86.42
2023-05-16T15:25:25.957Z,86.66
2023-05-16T15:27:54.429Z,86.62
2023-05-16T15:30:23.063Z,86.94
2023-05-16T15:32:51.521Z,86.96
2023-05-16T15:35:20.122Z,87.00
2023-05-16T15:37:50.873Z,86.99
2023-05-16T15:40:21.320Z,86.79
2023-05-16T15:42:51.835Z,86.82
2023-05-16T15:45:21.112Z,86.70
2023-05-16T15:47:49.578Z,86.72
2023-05-16T15:50:18.042Z,86.45
2023-05-16T15:52:46.522Z,86.40
2023-05-16T15:55:16.533Z,86.69
2023-05-16T15:57:45.012Z,86.55
2023-05-16T16:00:14.677Z,86.55
2023-05-16T16:02:45.248Z,86.63
2023-05-16T16:05:13.834Z,86.51
2023-05-16T16:07:42.398Z,86.39
2023-05-16T16:10:12.375Z,86.63
2023-05-16T16:12:42.227Z,86.75
2023-05-16T16:15:11.873Z,86.61
2023-05-16T16:17:40.338Z,86.81
2023-05-16T16:20:09.385Z,87.21
2023-05-16T16:22:37.792Z,87.45
2023-05-16T16:25:07.361Z,87.29
2023-05-16T16:27:35.978Z,87.32
2023-05-16T16:30:06.684Z,87.39
2023-05-16T16:32:35.153Z,87.58
2023-05-16T16:35:05.471Z,87.90
2023-05-16T16:37:34.347Z,87.96
2023-05-16T16:40:05.158Z,87.92
2023-05-16T16:42:33.532Z,88.08
2023-05-16T16:45:03.372Z,87.91
2023-05-16T16:47:33.522Z,87.99
2023-05-16T16:50:02.851Z,88.29
2023-05-16T16:52:33.490Z,88.48
2023-05-16T16:55:02.818Z,88.49
2023-05-16T16:57:31.316Z,88.31
2023-05-16T17:00:00.444Z,88.59
2023-05-16T17:02:29.261Z,89.00
2023-05-16T17:04:59.079Z,88.94
2023-05-16T17:07:27.490Z,89.06
2023-05-16T17:09:56.553Z,88.98
2023-05-16T17:12:28.411Z,89.16
2023-05-16T17:14:57.256Z,89.36
2023-05-16T17:17:27.262Z,89.36
2023-05-16T17:19:55.771Z,89.37
2023-05-16T17:22:25.857Z,89.58
2023-05-16T17:24:54.285Z,89.90
2023-05-16T17:27:22.929Z,90.05
2023-05-16T17:29:51.362Z,90.33
2023-05-16T17:32:21.407Z,90.27
2023-05-16T17:34:50.071Z,90.31
2023-05-16T17:37:18.498Z,90.35
2023-05-16T17:39:48.300Z,90.62
2023-05-16T17:42:16.774Z,91.06
2023-05-16T17:44:45.766Z,90.68
2023-05-16T17:47:14.260Z,90.74
2023-05-16T17:49:42.744Z,90.94
2023-05-16T17:52:11.240Z,91.00
2023-05-16T17:54:39.790Z,91.13
2023-05-16T17:57:09.630Z,91.18
2023-05-16T17:59:41.944Z,91.39
2023-05-16T18:02:15.137Z,91.27
2023-05-16T18:04:43.758Z,91.58
2023-05-16T18:07:12.737Z,91.52
2023-05-16T18:09:41.151Z,91.56
2023-05-16T18:12:11.423Z,91.55
2023-05-16T18:14:40.137Z,91.60
2023-05-16T18:17:09.376Z,91.33
2023-05-16T18:19:38.063Z,91.38
2023-05-16T18:22:08.665Z,91.34
2023-05-16T18:24:37.596Z,91.79
2023-05-16T18:27:06.476Z,91.79
2023-05-16T18:29:36.320Z,91.83
2023-05-16T18:32:06.594Z,91.73
2023-05-16T18:34:35.202Z,91.80
2023-05-16T18:37:04.855Z,91.80
2023-05-16T18:39:33.545Z,92.02
2023-05-16T18:42:02.118Z,92.05
2023-05-16T18:44:30.588Z,91.82
2023-05-16T18:47:00.490Z,91.53
2023-05-16T18:49:29.140Z,91.38
2023-05-16T18:51:57.624Z,91.25
2023-05-16T18:54:26.121Z,91.11
2023-05-16T18:56:54.632Z,91.00
2023-05-16T18:59:23.071Z,91.05
2023-05-16T19:01:51.651Z,90.95
2023-05-16T19:04:21.598Z,90.96
2023-05-16T19:06:50.623Z,90.81
2023-05-16T19:09:19.499Z,90.66
2023-05-16T19:11:48.001Z,90.60
2023-05-16T19:14:16.478Z,90.66
2023-05-16T19:16:44.962Z,90.63
2023-05-16T19:19:13.930Z,90.62
2023-05-16T19:21:43.908Z,90.67
2023-05-16T19:24:12.372Z,90.56
2023-05-16T19:26:41.196Z,90.47
2023-05-16T19:29:10.719Z,90.53
2023-05-16T19:31:39.137Z,90.62
2023-05-16T19:34:08.365Z,90.80
2023-05-16T19:36:37.417Z,90.88
2023-05-16T19:39:07.537Z,90.97
2023-05-16T19:41:36.714Z,91.11
2023-05-16T19:44:06.683Z,91.27
2023-05-16T19:46:35.213Z,91.29
2023-05-16T19:49:06.328Z,91.41
2023-05-16T19:51:41.931Z,91.55
2023-05-16T19:54:12.167Z,91.61
2023-05-16T19:56:40.550Z,91.81
2023-05-16T19:59:08.936Z,91.68
2023-05-16T20:01:37.373Z,91.70
2023-05-16T20:04:07.289Z,91.61
2023-05-16T20:06:36.566Z,91.86
2023-05-16T20:09:07.304Z,92.17
2023-05-16T20:11:37.676Z,92.35
2023-05-16T20:14:07.501Z,92.47
2023-05-16T20:16:36.238Z,92.03
2023-05-16T20:19:08.225Z,92.27
2023-05-16T20:21:36.912Z,92.03
2023-05-16T20:24:07.359Z,91.96
2023-05-16T20:26:37.234Z,91.82
2023-05-16T20:29:07.162Z,91.97
2023-05-16T20:31:35.629Z,91.59
2023-05-16T20:34:06.604Z,91.67
2023-05-16T20:36:35.044Z,91.76
2023-05-16T20:39:04.785Z,91.55
2023-05-16T20:41:33.255Z,91.65
2023-05-16T20:44:03.074Z,91.52
2023-05-16T20:46:31.924Z,91.80
2023-05-16T20:49:00.503Z,91.34
2023-05-16T20:51:29.047Z,91.24
2023-05-16T20:53:57.876Z,90.93
2023-05-16T20:56:27.565Z,90.64
2023-05-16T20:58:56.653Z,90.38
2023-05-16T21:01:27.751Z,90.16
2023-05-16T21:03:56.541Z,90.11
2023-05-16T21:06:24.961Z,89.88
2023-05-16T21:08:53.425Z,90.02
2023-05-16T21:11:21.955Z,89.79
2023-05-16T21:13:50.821Z,89.86
2023-05-16T21:16:19.406Z,89.46
2023-05-16T21:18:49.442Z,89.38
2023-05-16T21:21:18.204Z,89.38
2023-05-16T21:23:46.617Z,89.74
2023-05-16T21:26:15.249Z,89.30
2023-05-16T21:28:54.371Z,89.34
2023-05-16T21:31:24.556Z,89.38
2023-05-16T21:33:55.293Z,89.21
2023-05-16T21:36:25.785Z,89.27
2023-05-16T21:38:55.829Z,89.42
2023-05-16T21:41:26.841Z,89.63
2023-05-16T21:43:55.623Z,89.31
2023-05-16T21:46:25.022Z,89.18
2023-05-16T21:48:55.349Z,89.37
2023-05-16T21:51:28.737Z,89.28
2023-05-16T21:53:57.295Z,89.41
2023-05-16T21:56:27.620Z,89.15
2023-05-16T21:58:57.850Z,89.13
2023-05-16T22:01:26.489Z,89.02
2023-05-16T22:03:56.815Z,89.22
2023-05-16T22:06:25.481Z,89.11
2023-05-16T22:08:54.999Z,89.33
2023-05-16T22:11:23.514Z,88.92
2023-05-16T22:13:51.983Z,89.08
2023-05-16T22:16:20.462Z,89.13
2023-05-16T22:18:49.089Z,89.14
2023-05-16T22:21:20.228Z,89.25
2023-05-16T22:23:48.625Z,89.24
2023-05-16T22:26:16.995Z,89.38
2023-05-16T22:28:45.480Z,89.37
2023-05-16T22:31:13.939Z,89.30
2023-05-16T22:33:42.402Z,89.62
2023-05-16T22:36:11.061Z,89.30
2023-05-16T22:38:40.852Z,89.76
2023-05-16T22:41:09.196Z,89.74
2023-05-16T22:43:38.394Z,90.30
2023-05-16T22:46:08.935Z,89.97
2023-05-16T22:48:37.411Z,89.87
2023-05-16T22:51:09.230Z,89.80
2023-05-16T22:53:37.667Z,89.91
2023-05-16T22:56:10.081Z,90.00
2023-05-16T22:58:38.519Z,89.93
2023-05-16T23:01:08.544Z,90.10
2023-05-16T23:03:37.131Z,90.17
2023-05-16T23:06:06.759Z,89.93
2023-05-16T23:08:40.793Z,89.89
2023-05-16T23:11:10.546Z,89.75
2023-05-16T23:13:39.702Z,90.46
2023-05-16T23:16:09.452Z,90.17
2023-05-16T23:18:37.960Z,90.08
2023-05-16T23:21:07.097Z,90.45
2023-05-16T23:23:35.496Z,90.28
2023-05-16T23:26:03.924Z,90.50
2023-05-16T23:28:33.794Z,90.84
2023-05-16T23:31:02.131Z,90.97
2023-05-16T23:33:30.989Z,90.71
2023-05-16T23:35:59.420Z,90.81
2023-05-16T23:38:27.791Z,90.86
2023-05-16T23:40:56.201Z,90.90
2023-05-16T23:43:24.650Z,91.48
2023-05-16T23:45:54.396Z,91.71
2023-05-16T23:48:22.942Z,91.49
2023-05-16T23:50:51.712Z,91.41
2023-05-16T23:53:21.087Z,91.64
2023-05-16T23:55:49.425Z,91.88
2023-05-16T23:58:17.887Z,91.88
